createdAt,value
2018-09-24T00:01:29.473Z,94921.00
2018-09-24T00:04:01.520Z,94925.00
2018-09-24T00:06:33.452Z,94918.00
2018-09-24T00:09:07.374Z,94918.00
2018-09-24T00:11:39.284Z,94917.00
2018-09-24T00:14:11.310Z,94913.00
2018-09-24T00:16:43.415Z,94915.00
2018-09-24T00:19:15.993Z,94910.00
2018-09-24T00:21:47.761Z,94906.00
2018-09-24T00:24:20.078Z,94908.00
2018-09-24T00:26:52.312Z,94906.00
2018-09-24T00:29:24.709Z,94900.00
2018-09-24T00:31:56.828Z,94900.00
2018-09-24T00:34:28.581Z,94905.00
2018-09-24T00:37:01.132Z,94895.00
2018-09-24T00:39:34.471Z,94885.00
2018-09-24T00:42:06.899Z,94894.00
2018-09-24T00:44:39.347Z,94883.00
2018-09-24T00:47:11.933Z,94876.00
2018-09-24T00:49:44.305Z,94876.00
2018-09-24T00:52:16.334Z,94877.00
2018-09-24T00:54:48.146Z,94878.00
2018-09-24T00:57:20.129Z,94866.00
2018-09-24T00:59:53.066Z,94859.00
2018-09-24T01:02:25.090Z,94862.00
2018-09-24T01:04:57.238Z,94859.00
2018-09-24T01:07:29.574Z,94859.00
2018-09-24T01:10:02.028Z,94861.00
2018-09-24T01:12:33.759Z,94862.00
2018-09-24T01:15:06.207Z,94851.00
2018-09-24T01:17:38.506Z,94853.00
2018-09-24T01:20:11.640Z,94844.00
2018-09-24T01:22:43.769Z,94854.00
2018-09-24T01:25:15.931Z,94841.00
2018-09-24T01:27:48.006Z,94839.00
2018-09-24T01:30:20.144Z,94842.00
2018-09-24T01:32:51.913Z,94836.00
2018-09-24T01:35:23.847Z,94831.00
2018-09-24T01:37:56.043Z,94829.00
2018-09-24T01:40:28.173Z,94821.00
2018-09-24T01:43:01.246Z,94826.00
2018-09-24T01:45:34.149Z,94825.00
2018-09-24T01:48:06.194Z,94822.00
2018-09-24T01:50:38.284Z,94815.00
2018-09-24T01:53:10.550Z,94814.00
2018-09-24T01:55:42.492Z,94816.00
2018-09-24T01:58:14.541Z,94811.00
2018-09-24T02:00:46.888Z,94816.00
2018-09-24T02:03:19.018Z,94800.00
2018-09-24T02:05:51.175Z,94808.00
2018-09-24T02:08:23.074Z,94797.00
2018-09-24T02:10:55.949Z,94798.00
2018-09-24T02:13:28.834Z,94798.00
2018-09-24T02:16:01.099Z,94802.00
2018-09-24T02:18:32.923Z,94797.00
2018-09-24T02:21:05.089Z,94798.00
2018-09-24T02:23:37.333Z,94794.00
2018-09-24T02:26:09.813Z,94796.00
2018-09-24T02:28:42.436Z,94793.00
2018-09-24T02:31:15.330Z,94792.00
2018-09-24T02:33:47.069Z,94793.00
2018-09-24T02:36:18.948Z,94790.00
2018-09-24T02:38:51.176Z,94788.00
2018-09-24T02:41:22.928Z,94780.00
2018-09-24T02:43:54.865Z,94779.00
2018-09-24T02:46:26.857Z,94783.00
2018-09-24T02:49:04.787Z,94770.00
2018-09-24T02:51:36.633Z,94768.00
2018-09-24T02:54:08.694Z,94780.00
2018-09-24T02:56:52.313Z,94764.00
2018-09-24T02:59:24.188Z,94766.00
2018-09-24T03:01:56.290Z,94760.00
2018-09-24T03:04:28.231Z,94766.00
2018-09-24T03:07:00.754Z,94761.00
2018-09-24T03:09:35.381Z,94772.00
2018-09-24T03:12:08.399Z,94764.00
2018-09-24T03:14:40.262Z,94761.00
2018-09-24T03:17:16.815Z,94749.00
2018-09-24T03:19:49.189Z,94765.00
2018-09-24T03:22:26.077Z,94762.00
2018-09-24T03:24:58.402Z,94759.00
2018-09-24T03:27:30.041Z,94757.00
2018-09-24T03:30:02.511Z,94763.00
2018-09-24T03:32:35.107Z,94764.00
2018-09-24T03:35:07.344Z,94761.00
2018-09-24T03:37:40.155Z,94775.00
2018-09-24T03:40:12.237Z,94745.00
2018-09-24T03:42:44.765Z,94764.00
2018-09-24T03:45:17.187Z,94756.00
2018-09-24T03:47:49.238Z,94755.00
2018-09-24T03:50:21.383Z,94754.00
2018-09-24T03:52:54.056Z,94752.00
2018-09-24T03:55:26.072Z,94749.00
2018-09-24T03:57:58.580Z,94746.00
2018-09-24T04:00:30.589Z,94745.00
2018-09-24T04:03:02.759Z,94737.00
2018-09-24T04:05:39.660Z,94737.00
2018-09-24T04:08:17.703Z,94740.00
2018-09-24T04:10:55.295Z,94740.00
2018-09-24T04:13:32.379Z,94739.00
2018-09-24T04:16:09.616Z,94725.00
2018-09-24T04:18:46.788Z,94734.00
2018-09-24T04:21:23.866Z,94733.00
2018-09-24T04:24:01.329Z,94737.00
2018-09-24T04:26:38.324Z,94726.00
2018-09-24T04:29:15.384Z,94736.00
2018-09-24T04:31:52.328Z,94726.00
2018-09-24T04:34:29.324Z,94729.00
2018-09-24T04:37:06.329Z,94738.00
2018-09-24T04:39:43.407Z,94739.00
2018-09-24T04:42:20.708Z,94747.00
2018-09-24T04:44:57.583Z,94744.00
2018-09-24T04:47:34.452Z,94742.00
2018-09-24T04:50:10.988Z,94737.00
2018-09-24T04:52:48.030Z,94734.00
2018-09-24T04:55:24.805Z,94735.00
2018-09-24T04:58:01.770Z,94725.00
2018-09-24T05:00:38.737Z,94724.00
2018-09-24T05:03:16.296Z,94734.00
2018-09-24T05:05:53.243Z,94733.00
2018-09-24T05:08:30.024Z,94735.00
2018-09-24T05:11:07.044Z,94730.00
2018-09-24T05:13:44.473Z,94730.00
2018-09-24T05:16:21.582Z,94722.00
2018-09-24T05:18:58.758Z,94717.00
2018-09-24T05:21:35.976Z,94715.00
2018-09-24T05:24:12.982Z,94713.00
2018-09-24T05:26:49.363Z,94715.00
2018-09-24T05:29:26.306Z,94716.00
2018-09-24T05:32:03.720Z,94716.00
2018-09-24T05:34:40.977Z,94713.00
2018-09-24T05:37:18.445Z,94714.00
2018-09-24T05:39:57.411Z,94718.00
2018-09-24T05:42:34.021Z,94709.00
2018-09-24T05:45:11.287Z,94712.00
2018-09-24T05:47:48.223Z,94713.00
2018-09-24T05:50:25.717Z,94707.00
2018-09-24T05:53:04.240Z,94705.00
2018-09-24T05:55:42.473Z,94703.00
2018-09-24T05:58:19.584Z,94695.00
2018-09-24T06:00:56.156Z,94692.00
2018-09-24T06:03:32.999Z,94699.00
2018-09-24T06:06:10.216Z,94700.00
2018-09-24T06:08:47.167Z,94703.00
2018-09-24T06:11:24.285Z,94707.00
2018-09-24T06:14:02.118Z,94704.00
2018-09-24T06:16:38.916Z,94701.00
2018-09-24T06:19:16.651Z,94709.00
2018-09-24T06:21:53.646Z,94709.00
2018-09-24T06:24:30.682Z,94711.00
2018-09-24T06:27:07.755Z,94716.00
2018-09-24T06:29:44.895Z,94716.00
2018-09-24T06:32:21.568Z,94720.00
2018-09-24T06:34:58.624Z,94714.00
2018-09-24T06:37:35.784Z,94716.00
2018-09-24T06:40:12.473Z,94713.00
2018-09-24T06:42:49.643Z,94714.00
2018-09-24T06:45:26.487Z,94714.00
2018-09-24T06:48:03.396Z,94704.00
2018-09-24T06:50:40.474Z,94700.00
2018-09-24T06:53:17.437Z,94699.00
2018-09-24T06:55:54.860Z,94691.00
2018-09-24T06:58:31.753Z,94691.00
2018-09-24T07:01:08.926Z,94691.00
2018-09-24T07:03:46.845Z,94688.00
2018-09-24T07:06:23.756Z,94689.00
2018-09-24T07:09:01.007Z,94686.00
2018-09-24T07:11:38.176Z,94679.00
2018-09-24T07:14:16.166Z,94686.00
2018-09-24T07:16:53.450Z,94685.00
2018-09-24T07:19:30.985Z,94676.00
2018-09-24T07:22:08.563Z,94671.00
2018-09-24T07:24:45.753Z,94671.00
2018-09-24T07:27:24.536Z,94665.00
2018-09-24T07:30:01.958Z,94667.00
2018-09-24T07:32:39.304Z,94670.00
2018-09-24T07:35:17.086Z,94663.00
2018-09-24T07:37:54.532Z,94663.00
2018-09-24T07:40:32.890Z,94664.00
2018-09-24T07:43:09.810Z,94657.00
2018-09-24T07:45:48.541Z,94652.00
2018-09-24T07:48:25.961Z,94648.00
2018-09-24T07:51:02.642Z,94641.00
2018-09-24T07:53:39.169Z,94645.00
2018-09-24T07:56:16.188Z,94644.00
2018-09-24T07:58:53.296Z,94638.00
2018-09-24T08:01:30.441Z,94630.00
2018-09-24T08:04:07.603Z,94632.00
2018-09-24T08:06:45.226Z,94631.00
2018-09-24T08:09:22.434Z,94629.00
2018-09-24T08:11:59.851Z,94635.00
2018-09-24T08:14:36.987Z,94626.00
2018-09-24T08:17:14.019Z,94620.00
2018-09-24T08:19:50.979Z,94621.00
2018-09-24T08:22:27.877Z,94628.00
2018-09-24T08:25:04.822Z,94616.00
2018-09-24T08:27:42.495Z,94622.00
2018-09-24T08:30:19.084Z,94614.00
2018-09-24T08:32:56.022Z,94612.00
2018-09-24T08:35:34.600Z,94614.00
2018-09-24T08:38:12.008Z,94609.00
2018-09-24T08:40:48.693Z,94605.00
2018-09-24T08:43:25.625Z,94603.00
2018-09-24T08:46:02.671Z,94605.00
2018-09-24T08:48:39.207Z,94598.00
2018-09-24T08:51:16.152Z,94592.00
2018-09-24T08:53:53.649Z,94591.00
2018-09-24T08:56:31.079Z,94589.00
2018-09-24T08:59:08.092Z,94585.00
2018-09-24T09:01:45.239Z,94585.00
2018-09-24T09:04:22.224Z,94577.00
2018-09-24T09:06:58.532Z,94581.00
2018-09-24T09:09:35.672Z,94578.00
2018-09-24T09:12:13.524Z,94574.00
2018-09-24T09:14:50.470Z,94555.00
2018-09-24T09:17:27.696Z,94567.00
2018-09-24T09:20:04.976Z,94563.00
2018-09-24T09:22:41.748Z,94571.00
2018-09-24T09:25:18.409Z,94565.00
2018-09-24T09:27:56.241Z,94570.00
2018-09-24T09:30:33.637Z,94568.00
2018-09-24T09:33:10.821Z,94568.00
2018-09-24T09:35:49.283Z,94555.00
2018-09-24T09:38:26.373Z,94553.00
2018-09-24T09:41:03.827Z,94549.00
2018-09-24T09:43:40.367Z,94546.00
2018-09-24T09:46:18.498Z,94542.00
2018-09-24T09:48:55.882Z,94543.00
2018-09-24T09:51:33.720Z,94539.00
2018-09-24T09:54:10.879Z,94534.00
2018-09-24T09:56:48.033Z,94542.00
2018-09-24T09:59:25.143Z,94546.00
2018-09-24T10:02:02.373Z,94535.00
2018-09-24T10:04:39.419Z,94539.00
2018-09-24T10:07:16.720Z,94539.00
2018-09-24T10:09:54.026Z,94526.00
2018-09-24T10:12:31.586Z,94518.00
2018-09-24T10:15:09.185Z,94520.00
2018-09-24T10:17:46.442Z,94524.00
2018-09-24T10:20:22.988Z,94527.00
2018-09-24T10:22:59.925Z,94528.00
2018-09-24T10:25:36.944Z,94522.00
2018-09-24T10:28:14.177Z,94520.00
2018-09-24T10:30:51.434Z,94514.00
2018-09-24T10:33:29.330Z,94520.00
2018-09-24T10:36:06.451Z,94521.00
2018-09-24T10:38:43.023Z,94515.00
2018-09-24T10:41:20.067Z,94515.00
2018-09-24T10:43:57.104Z,94509.00
2018-09-24T10:46:34.354Z,94502.00
2018-09-24T10:49:11.653Z,94509.00
2018-09-24T10:51:49.213Z,94507.00
2018-09-24T10:54:26.636Z,94509.00
2018-09-24T10:57:03.551Z,94503.00
2018-09-24T10:59:40.807Z,94510.00
2018-09-24T11:02:18.947Z,94502.00
2018-09-24T11:04:56.758Z,94504.00
2018-09-24T11:07:34.645Z,94502.00
2018-09-24T11:10:12.588Z,94503.00
2018-09-24T11:12:49.493Z,94504.00
2018-09-24T11:15:26.179Z,94503.00
2018-09-24T11:18:03.404Z,94513.00
2018-09-24T11:20:40.888Z,94522.00
2018-09-24T11:23:18.066Z,94530.00
2018-09-24T11:25:55.978Z,94535.00
2018-09-24T11:28:33.945Z,94532.00
2018-09-24T11:31:12.078Z,94547.00
2018-09-24T11:33:48.939Z,94546.00
2018-09-24T11:36:26.205Z,94558.00
2018-09-24T11:39:03.405Z,94584.00
2018-09-24T11:41:40.931Z,94600.00
2018-09-24T11:44:18.585Z,94596.00
2018-09-24T11:46:56.345Z,94601.00
2018-09-24T11:49:34.290Z,94609.00
2018-09-24T11:52:10.917Z,94600.00
2018-09-24T11:54:48.404Z,94604.00
2018-09-24T11:57:25.563Z,94609.00
2018-09-24T12:00:03.033Z,94618.00
2018-09-24T12:02:40.488Z,94631.00
2018-09-24T12:05:17.846Z,94640.00
2018-09-24T12:07:55.180Z,94648.00
2018-09-24T12:10:31.972Z,94656.00
2018-09-24T12:13:09.481Z,94664.00
2018-09-24T12:15:46.659Z,94680.00
2018-09-24T12:18:24.257Z,94679.00
2018-09-24T12:21:01.420Z,94696.00
2018-09-24T12:23:38.354Z,94702.00
2018-09-24T12:26:15.624Z,94701.00
